sensor_id;sensor_type;location;lat;lon;timestamp;P1;durP1;ratioP1;P2;durP2;ratioP2
60430;SDS011;46285;45.122;20.726;2023-11-19T00:01:14;20.37;;;13.07;;
60430;SDS011;46285;45.122;20.726;2023-11-19T00:11:17;15.48;;;9.40;;
60430;SDS011;46285;45.122;20.726;2023-11-19T00:21:19;16.55;;;9.60;;
60430;SDS011;46285;45.122;20.726;2023-11-19T00:31:21;15.30;;;9.60;;
60430;SDS011;46285;45.122;20.726;2023-11-19T00:41:23;24.55;;;14.30;;
60430;SDS011;46285;45.122;20.726;2023-11-19T00:51:26;19.42;;;11.57;;
60430;SDS011;46285;45.122;20.726;2023-11-19T01:01:28;15.20;;;9.88;;
60430;SDS011;46285;45.122;20.726;2023-11-19T01:11:30;18.45;;;9.30;;
60430;SDS011;46285;45.122;20.726;2023-11-19T01:21:32;15.40;;;9.20;;
60430;SDS011;46285;45.122;20.726;2023-11-19T01:31:34;14.85;;;8.93;;
60430;SDS011;46285;45.122;20.726;2023-11-19T01:41:38;17.80;;;12.70;;
60430;SDS011;46285;45.122;20.726;2023-11-19T01:51:40;13.85;;;8.50;;
60430;SDS011;46285;45.122;20.726;2023-11-19T02:01:42;17.48;;;9.30;;
60430;SDS011;46285;45.122;20.726;2023-11-19T02:11:44;15.77;;;9.77;;
60430;SDS011;46285;45.122;20.726;2023-11-19T02:21:50;14.93;;;9.83;;
60430;SDS011;46285;45.122;20.726;2023-11-19T02:31:52;18.17;;;12.38;;
60430;SDS011;46285;45.122;20.726;2023-11-19T02:41:56;20.73;;;13.68;;
60430;SDS011;46285;45.122;20.726;2023-11-19T02:51:58;21.98;;;13.77;;
60430;SDS011;46285;45.122;20.726;2023-11-19T03:02:00;15.80;;;9.77;;
60430;SDS011;46285;45.122;20.726;2023-11-19T03:12:02;17.38;;;10.63;;
60430;SDS011;46285;45.122;20.726;2023-11-19T03:22:07;20.30;;;12.98;;
60430;SDS011;46285;45.122;20.726;2023-11-19T03:32:09;19.85;;;11.10;;
60430;SDS011;46285;45.122;20.726;2023-11-19T03:42:13;17.58;;;11.55;;
60430;SDS011;46285;45.122;20.726;2023-11-19T03:52:15;18.33;;;10.98;;
60430;SDS011;46285;45.122;20.726;2023-11-19T04:02:17;17.42;;;11.15;;
60430;SDS011;46285;45.122;20.726;2023-11-19T04:12:19;15.75;;;10.48;;
60430;SDS011;46285;45.122;20.726;2023-11-19T04:22:23;16.92;;;10.68;;
60430;SDS011;46285;45.122;20.726;2023-11-19T04:32:26;17.75;;;11.57;;
60430;SDS011;46285;45.122;20.726;2023-11-19T04:42:28;16.88;;;11.30;;
60430;SDS011;46285;45.122;20.726;2023-11-19T04:52:30;19.30;;;11.60;;
60430;SDS011;46285;45.122;20.726;2023-11-19T05:02:32;16.38;;;11.02;;
60430;SDS011;46285;45.122;20.726;2023-11-19T05:12:34;22.52;;;13.32;;
60430;SDS011;46285;45.122;20.726;2023-11-19T05:22:37;22.50;;;13.88;;
60430;SDS011;46285;45.122;20.726;2023-11-19T05:32:39;20.95;;;12.45;;
60430;SDS011;46285;45.122;20.726;2023-11-19T05:42:41;21.63;;;14.20;;
60430;SDS011;46285;45.122;20.726;2023-11-19T05:52:43;29.65;;;18.38;;
60430;SDS011;46285;45.122;20.726;2023-11-19T06:02:45;45.33;;;25.83;;
60430;SDS011;46285;45.122;20.726;2023-11-19T06:12:47;44.38;;;26.40;;
60430;SDS011;46285;45.122;20.726;2023-11-19T06:22:49;43.38;;;28.77;;
60430;SDS011;46285;45.122;20.726;2023-11-19T06:32:51;24.38;;;16.55;;
60430;SDS011;46285;45.122;20.726;2023-11-19T06:42:53;64.15;;;32.80;;
60430;SDS011;46285;45.122;20.726;2023-11-19T06:52:55;97.80;;;56.28;;
60430;SDS011;46285;45.122;20.726;2023-11-19T07:02:57;72.70;;;43.67;;
60430;SDS011;46285;45.122;20.726;2023-11-19T07:12:59;32.08;;;22.48;;
60430;SDS011;46285;45.122;20.726;2023-11-19T07:23:01;34.80;;;21.05;;
60430;SDS011;46285;45.122;20.726;2023-11-19T07:33:03;22.75;;;14.43;;
60430;SDS011;46285;45.122;20.726;2023-11-19T07:43:05;41.63;;;24.23;;
60430;SDS011;46285;45.122;20.726;2023-11-19T07:53:08;42.78;;;25.75;;
60430;SDS011;46285;45.122;20.726;2023-11-19T08:03:10;35.47;;;23.10;;
60430;SDS011;46285;45.122;20.726;2023-11-19T08:13:11;37.47;;;29.15;;
60430;SDS011;46285;45.122;20.726;2023-11-19T08:23:13;24.80;;;18.42;;
60430;SDS011;46285;45.122;20.726;2023-11-19T08:33:15;40.67;;;35.42;;
60430;SDS011;46285;45.122;20.726;2023-11-19T08:43:17;54.15;;;46.65;;
60430;SDS011;46285;45.122;20.726;2023-11-19T08:53:19;19.95;;;14.52;;
60430;SDS011;46285;45.122;20.726;2023-11-19T09:03:22;91.55;;;61.20;;
60430;SDS011;46285;45.122;20.726;2023-11-19T09:13:23;32.22;;;21.27;;
60430;SDS011;46285;45.122;20.726;2023-11-19T09:23:25;24.40;;;21.13;;
60430;SDS011;46285;45.122;20.726;2023-11-19T09:33:30;15.93;;;11.25;;
60430;SDS011;46285;45.122;20.726;2023-11-19T09:43:32;15.27;;;10.45;;
60430;SDS011;46285;45.122;20.726;2023-11-19T09:53:34;22.73;;;14.57;;
60430;SDS011;46285;45.122;20.726;2023-11-19T10:03:37;24.40;;;17.75;;
60430;SDS011;46285;45.122;20.726;2023-11-19T10:13:40;33.90;;;21.60;;
60430;SDS011;46285;45.122;20.726;2023-11-19T10:33:53;25.70;;;16.73;;
60430;SDS011;46285;45.122;20.726;2023-11-19T10:43:56;35.03;;;17.67;;
60430;SDS011;46285;45.122;20.726;2023-11-19T10:54:05;24.58;;;15.85;;
60430;SDS011;46285;45.122;20.726;2023-11-19T11:04:10;45.35;;;28.10;;
60430;SDS011;46285;45.122;20.726;2023-11-19T11:14:16;38.38;;;25.10;;
60430;SDS011;46285;45.122;20.726;2023-11-19T11:24:24;28.92;;;14.43;;
60430;SDS011;46285;45.122;20.726;2023-11-19T11:34:50;18.98;;;13.02;;
60430;SDS011;46285;45.122;20.726;2023-11-19T11:45:03;16.73;;;11.10;;
60430;SDS011;46285;45.122;20.726;2023-11-19T11:55:11;22.48;;;14.15;;
60430;SDS011;46285;45.122;20.726;2023-11-19T12:05:13;10.93;;;7.63;;
60430;SDS011;46285;45.122;20.726;2023-11-19T12:15:15;17.20;;;12.10;;
60430;SDS011;46285;45.122;20.726;2023-11-19T12:25:17;15.20;;;9.88;;
60430;SDS011;46285;45.122;20.726;2023-11-19T12:35:21;40.47;;;25.23;;
60430;SDS011;46285;45.122;20.726;2023-11-19T12:45:23;34.55;;;21.38;;
60430;SDS011;46285;45.122;20.726;2023-11-19T12:55:26;35.42;;;22.23;;
60430;SDS011;46285;45.122;20.726;2023-11-19T13:05:33;21.60;;;13.25;;
60430;SDS011;46285;45.122;20.726;2023-11-19T13:15:35;24.67;;;14.77;;
60430;SDS011;46285;45.122;20.726;2023-11-19T13:25:37;49.92;;;25.42;;
60430;SDS011;46285;45.122;20.726;2023-11-19T13:35:39;30.75;;;14.98;;
60430;SDS011;46285;45.122;20.726;2023-11-19T13:45:42;26.90;;;15.25;;
60430;SDS011;46285;45.122;20.726;2023-11-19T13:55:44;65.32;;;37.03;;
60430;SDS011;46285;45.122;20.726;2023-11-19T14:05:46;43.88;;;26.90;;
60430;SDS011;46285;45.122;20.726;2023-11-19T14:15:49;80.72;;;46.42;;
60430;SDS011;46285;45.122;20.726;2023-11-19T14:25:51;22.80;;;13.10;;
60430;SDS011;46285;45.122;20.726;2023-11-19T14:35:53;16.85;;;10.60;;
60430;SDS011;46285;45.122;20.726;2023-11-19T14:45:55;26.05;;;16.42;;
60430;SDS011;46285;45.122;20.726;2023-11-19T14:55:57;39.72;;;25.77;;
60430;SDS011;46285;45.122;20.726;2023-11-19T15:05:59;32.30;;;19.17;;
60430;SDS011;46285;45.122;20.726;2023-11-19T15:16:02;108.72;;;63.10;;
60430;SDS011;46285;45.122;20.726;2023-11-19T15:26:06;109.70;;;62.67;;
60430;SDS011;46285;45.122;20.726;2023-11-19T15:36:11;372.33;;;194.32;;
60430;SDS011;46285;45.122;20.726;2023-11-19T15:46:13;502.25;;;271.80;;
60430;SDS011;46285;45.122;20.726;2023-11-19T15:56:18;528.55;;;284.67;;
60430;SDS011;46285;45.122;20.726;2023-11-19T16:06:21;560.88;;;302.60;;
60430;SDS011;46285;45.122;20.726;2023-11-19T16:16:25;401.33;;;201.13;;
60430;SDS011;46285;45.122;20.726;2023-11-19T16:26:28;383.85;;;201.32;;
60430;SDS011;46285;45.122;20.726;2023-11-19T16:36:31;139.80;;;79.35;;
60430;SDS011;46285;45.122;20.726;2023-11-19T16:46:33;110.43;;;63.30;;
60430;SDS011;46285;45.122;20.726;2023-11-19T16:56:35;95.18;;;61.45;;
60430;SDS011;46285;45.122;20.726;2023-11-19T17:06:39;56.03;;;37.10;;
60430;SDS011;46285;45.122;20.726;2023-11-19T17:16:41;43.03;;;26.17;;
60430;SDS011;46285;45.122;20.726;2023-11-19T17:26:44;44.35;;;27.00;;
60430;SDS011;46285;45.122;20.726;2023-11-19T17:36:48;42.40;;;26.15;;
60430;SDS011;46285;45.122;20.726;2023-11-19T17:57:24;29.23;;;18.80;;
60430;SDS011;46285;45.122;20.726;2023-11-19T18:07:30;28.10;;;17.17;;
60430;SDS011;46285;45.122;20.726;2023-11-19T18:17:35;35.67;;;21.83;;
60430;SDS011;46285;45.122;20.726;2023-11-19T18:27:39;25.73;;;18.20;;
60430;SDS011;46285;45.122;20.726;2023-11-19T18:37:44;33.03;;;21.45;;
60430;SDS011;46285;45.122;20.726;2023-11-19T18:47:47;34.38;;;22.85;;
60430;SDS011;46285;45.122;20.726;2023-11-19T18:57:51;32.03;;;23.00;;
60430;SDS011;46285;45.122;20.726;2023-11-19T19:07:55;34.55;;;22.95;;
60430;SDS011;46285;45.122;20.726;2023-11-19T19:17:59;34.10;;;22.23;;
60430;SDS011;46285;45.122;20.726;2023-11-19T19:28:02;40.17;;;23.20;;
60430;SDS011;46285;45.122;20.726;2023-11-19T19:38:06;53.53;;;34.00;;
60430;SDS011;46285;45.122;20.726;2023-11-19T19:48:10;82.55;;;41.88;;
60430;SDS011;46285;45.122;20.726;2023-11-19T19:58:12;54.58;;;32.13;;
60430;SDS011;46285;45.122;20.726;2023-11-19T20:08:19;47.90;;;29.38;;
60430;SDS011;46285;45.122;20.726;2023-11-19T20:18:21;45.17;;;29.85;;
60430;SDS011;46285;45.122;20.726;2023-11-19T20:28:44;46.20;;;30.52;;
60430;SDS011;46285;45.122;20.726;2023-11-19T20:38:46;46.25;;;32.83;;
60430;SDS011;46285;45.122;20.726;2023-11-19T20:48:48;42.53;;;28.80;;
60430;SDS011;46285;45.122;20.726;2023-11-19T20:58:52;43.67;;;30.88;;
60430;SDS011;46285;45.122;20.726;2023-11-19T21:08:55;38.38;;;26.25;;
60430;SDS011;46285;45.122;20.726;2023-11-19T21:18:58;77.70;;;40.85;;
60430;SDS011;46285;45.122;20.726;2023-11-19T21:29:00;130.25;;;52.72;;
60430;SDS011;46285;45.122;20.726;2023-11-19T21:39:02;113.13;;;51.30;;
60430;SDS011;46285;45.122;20.726;2023-11-19T21:49:06;140.43;;;58.55;;
60430;SDS011;46285;45.122;20.726;2023-11-19T21:59:08;99.18;;;47.55;;
60430;SDS011;46285;45.122;20.726;2023-11-19T22:09:10;60.22;;;33.85;;
60430;SDS011;46285;45.122;20.726;2023-11-19T22:19:24;50.40;;;32.00;;
60430;SDS011;46285;45.122;20.726;2023-11-19T22:29:26;46.58;;;29.45;;
60430;SDS011;46285;45.122;20.726;2023-11-19T22:39:28;49.85;;;30.58;;
60430;SDS011;46285;45.122;20.726;2023-11-19T22:49:30;67.43;;;34.50;;
60430;SDS011;46285;45.122;20.726;2023-11-19T22:59:32;39.13;;;25.50;;
60430;SDS011;46285;45.122;20.726;2023-11-19T23:09:34;59.30;;;34.53;;
60430;SDS011;46285;45.122;20.726;2023-11-19T23:19:36;84.68;;;39.42;;
60430;SDS011;46285;45.122;20.726;2023-11-19T23:29:38;89.28;;;43.92;;
60430;SDS011;46285;45.122;20.726;2023-11-19T23:39:41;73.07;;;37.63;;
60430;SDS011;46285;45.122;20.726;2023-11-19T23:49:43;37.75;;;23.42;;
60430;SDS011;46285;45.122;20.726;2023-11-19T23:59:45;96.05;;;40.55;;
